Terminal Aerodrome Forecast
Issued by NWS Twin Cities, MN

Home | Current Version | Previous Version | Text Only | Print | Product List | Glossary Off
Versions: 1 2 3 4 5 6 7 8 9 10 11 12 13 14 15 16 17 18 19 20 21 22 23 24 25 26

356
FTUS43 KMPX 132345
TAFMSP
TAF
KMSP 132345Z 1400/1506 14008KT P6SM SCT250
     FM140400 13008KT P6SM OVC070
     FM140900 12010KT 2SM -SN BKN025 OVC040
     FM141400 13014KT 5SM -SN BR OVC015
     FM141700 14013KT P6SM -SN OVC015
      TEMPO 1500/1503 3SM -SN OVC015=

USA.gov is the U.S. government's official web portal to all federal, state and local government web resources and services.